createdAt,value
2017-09-08T00:01:40.096Z,86.10
2017-09-08T00:04:07.600Z,86.30
2017-09-08T00:06:35.080Z,86.00
2017-09-08T00:09:02.575Z,86.60
2017-09-08T00:11:30.991Z,85.90
2017-09-08T00:13:58.488Z,86.20
2017-09-08T00:16:25.968Z,86.20
2017-09-08T00:18:54.321Z,86.20
2017-09-08T00:21:22.571Z,86.50
2017-09-08T00:23:50.068Z,85.90
2017-09-08T00:26:17.552Z,85.90
2017-09-08T00:28:45.053Z,85.60
2017-09-08T00:31:12.531Z,85.70
2017-09-08T00:33:40.028Z,85.40
2017-09-08T00:36:07.508Z,85.40
2017-09-08T00:38:35.004Z,85.20
2017-09-08T00:41:02.480Z,85.40
2017-09-08T00:43:29.976Z,85.40
2017-09-08T00:45:57.494Z,85.60
2017-09-08T00:48:24.964Z,85.70
2017-09-08T00:50:53.228Z,86.10
2017-09-08T00:53:21.483Z,85.70
2017-09-08T00:55:49.750Z,85.60
2017-09-08T00:58:17.240Z,85.50
2017-09-08T01:00:44.736Z,85.50
2017-09-08T01:03:12.224Z,85.50
2017-09-08T01:05:39.724Z,85.40
2017-09-08T01:08:07.208Z,85.50
2017-09-08T01:10:34.708Z,85.60
2017-09-08T01:13:02.188Z,86.00
2017-09-08T01:15:29.687Z,85.70
2017-09-08T01:17:57.943Z,85.60
2017-09-08T01:20:26.213Z,86.00
2017-09-08T01:22:53.690Z,86.00
2017-09-08T01:25:21.196Z,86.10
2017-09-08T01:27:49.868Z,86.30
2017-09-08T01:30:18.131Z,86.50
2017-09-08T01:32:45.617Z,86.50
2017-09-08T01:35:13.123Z,86.80
2017-09-08T01:37:40.601Z,87.10
2017-09-08T01:40:08.087Z,87.20
2017-09-08T01:42:36.353Z,87.50
2017-09-08T01:45:03.837Z,87.30
2017-09-08T01:47:31.344Z,87.70
2017-09-08T01:49:59.596Z,87.90
2017-09-08T01:52:27.862Z,88.10
2017-09-08T01:54:55.352Z,88.00
2017-09-08T01:57:22.852Z,88.40
2017-09-08T01:59:50.333Z,88.40
2017-09-08T02:02:17.836Z,88.50
2017-09-08T02:04:45.324Z,88.40
2017-09-08T02:07:12.821Z,88.40
2017-09-08T02:09:40.300Z,88.40
2017-09-08T02:12:07.800Z,88.50
2017-09-08T02:14:36.053Z,88.50
2017-09-08T02:17:04.315Z,88.20
2017-09-08T02:19:31.804Z,88.20
2017-09-08T02:22:05.026Z,88.20
2017-09-08T02:24:32.499Z,88.10
2017-09-08T02:26:59.999Z,88.00
2017-09-08T02:29:27.477Z,88.10
2017-09-08T02:31:54.975Z,88.30
2017-09-08T02:34:22.456Z,88.40
2017-09-08T02:36:50.705Z,88.40
2017-09-08T02:39:18.205Z,88.30
2017-09-08T02:41:45.692Z,88.70
2017-09-08T02:44:13.189Z,89.10
2017-09-08T02:46:40.668Z,89.10
2017-09-08T02:49:08.168Z,89.50
2017-09-08T02:51:35.644Z,89.50
2017-09-08T02:54:03.148Z,89.80
2017-09-08T02:56:31.401Z,89.90
2017-09-08T02:58:58.896Z,89.90
2017-09-08T03:01:26.383Z,89.80
2017-09-08T03:03:53.880Z,90.10
2017-09-08T03:06:21.369Z,90.10
2017-09-08T03:08:48.871Z,90.10
2017-09-08T03:11:17.120Z,90.50
2017-09-08T03:13:44.615Z,90.10
2017-09-08T03:16:12.096Z,90.10
2017-09-08T03:18:39.595Z,90.20
2017-09-08T03:21:07.848Z,90.50
2017-09-08T03:23:35.352Z,90.50
2017-09-08T03:26:02.832Z,90.70
2017-09-08T03:28:30.343Z,90.80
2017-09-08T03:30:57.825Z,91.00
2017-09-08T03:33:25.308Z,91.10
2017-09-08T03:35:52.809Z,91.10
2017-09-08T03:38:20.287Z,91.20
2017-09-08T03:40:47.788Z,91.30
2017-09-08T03:43:15.264Z,91.20
2017-09-08T03:45:42.760Z,91.20
2017-09-08T03:48:10.248Z,91.20
2017-09-08T03:50:37.751Z,91.20
2017-09-08T03:53:05.231Z,91.20
2017-09-08T03:55:32.741Z,91.30
2017-09-08T03:58:00.219Z,91.40
2017-09-08T04:00:27.721Z,91.50
2017-09-08T04:02:55.201Z,91.60
2017-09-08T04:05:22.701Z,91.50
2017-09-08T04:07:50.184Z,91.40
2017-09-08T04:10:17.683Z,91.40
2017-09-08T04:12:45.164Z,91.60
2017-09-08T04:15:12.660Z,91.60
2017-09-08T04:17:40.904Z,91.60
2017-09-08T04:20:08.405Z,91.50
2017-09-08T04:22:35.893Z,91.50
2017-09-08T04:25:03.401Z,91.60
2017-09-08T04:27:31.649Z,91.80
2017-09-08T04:29:59.131Z,91.40
2017-09-08T04:32:26.636Z,91.40
2017-09-08T04:34:54.124Z,91.40
2017-09-08T04:37:21.633Z,91.30
2017-09-08T04:39:49.891Z,91.30
2017-09-08T04:42:17.388Z,91.30
2017-09-08T04:44:44.867Z,91.10
2017-09-08T04:47:12.363Z,90.90
2017-09-08T04:49:39.918Z,90.90
2017-09-08T04:52:07.419Z,90.80
2017-09-08T04:54:35.660Z,90.90
2017-09-08T04:57:03.161Z,90.80
2017-09-08T04:59:31.408Z,90.80
2017-09-08T05:01:58.902Z,90.70
2017-09-08T05:04:26.385Z,90.60
2017-09-08T05:06:53.888Z,90.80
2017-09-08T05:09:21.367Z,90.70
2017-09-08T05:11:48.877Z,90.80
2017-09-08T05:14:16.357Z,90.90
2017-09-08T05:16:44.631Z,90.90
2017-09-08T05:19:12.112Z,90.90
2017-09-08T05:21:39.617Z,90.90
2017-09-08T05:24:07.091Z,90.90
2017-09-08T05:26:34.576Z,91.10
2017-09-08T05:29:02.077Z,91.20
2017-09-08T05:31:29.565Z,91.10
2017-09-08T05:33:57.065Z,91.10
2017-09-08T05:36:24.544Z,91.10
2017-09-08T05:38:52.035Z,91.00
2017-09-08T05:41:19.515Z,91.00
2017-09-08T05:43:47.012Z,91.00
2017-09-08T05:46:14.491Z,90.90
2017-09-08T05:48:41.996Z,90.90
2017-09-08T05:51:09.475Z,90.90
2017-09-08T05:53:36.975Z,90.80
2017-09-08T05:56:05.223Z,90.90
2017-09-08T05:58:32.725Z,90.80
2017-09-08T06:01:00.209Z,90.80
2017-09-08T06:03:27.728Z,90.80
2017-09-08T06:05:55.208Z,90.90
2017-09-08T06:08:23.472Z,90.90
2017-09-08T06:10:50.955Z,90.80
2017-09-08T06:13:18.456Z,90.80
2017-09-08T06:15:45.931Z,90.80
2017-09-08T06:18:13.445Z,90.90
2017-09-08T06:20:40.928Z,90.90
2017-09-08T06:23:08.417Z,90.70
2017-09-08T06:25:35.916Z,90.70
2017-09-08T06:28:03.405Z,90.70
2017-09-08T06:30:30.912Z,90.90
2017-09-08T06:32:58.388Z,90.50
2017-09-08T06:35:25.885Z,90.50
2017-09-08T06:37:53.365Z,90.60
2017-09-08T06:40:20.869Z,90.50
2017-09-08T06:42:48.348Z,90.50
2017-09-08T06:45:15.862Z,90.60
2017-09-08T06:47:43.344Z,90.30
2017-09-08T06:50:10.845Z,90.90
2017-09-08T06:52:39.093Z,90.40
2017-09-08T06:55:06.592Z,90.40
2017-09-08T06:57:34.073Z,90.50
2017-09-08T07:00:01.572Z,90.50
2017-09-08T07:02:29.055Z,90.30
2017-09-08T07:04:56.556Z,90.30
2017-09-08T07:07:24.035Z,90.40
2017-09-08T07:09:51.532Z,90.50
2017-09-08T07:12:19.010Z,90.30
2017-09-08T07:14:46.492Z,90.20
2017-09-08T07:17:13.989Z,90.20
2017-09-08T07:19:41.468Z,90.40
2017-09-08T07:22:08.964Z,90.10
2017-09-08T07:24:36.442Z,90.20
2017-09-08T07:27:03.947Z,90.30
2017-09-08T07:29:31.433Z,89.30
2017-09-08T07:31:58.932Z,88.70
2017-09-08T07:34:27.177Z,88.80
2017-09-08T07:36:54.683Z,88.70
2017-09-08T07:39:22.225Z,88.50
2017-09-08T07:41:49.728Z,88.70
2017-09-08T07:44:17.223Z,88.40
2017-09-08T07:46:44.715Z,88.20
2017-09-08T07:49:12.960Z,87.30
2017-09-08T07:51:41.220Z,87.00
2017-09-08T07:54:09.463Z,86.50
2017-09-08T07:56:36.964Z,86.50
2017-09-08T07:59:04.445Z,87.00
2017-09-08T08:01:31.960Z,86.00
2017-09-08T08:03:59.435Z,85.00
2017-09-08T08:06:26.936Z,85.00
2017-09-08T08:08:54.420Z,84.60
2017-09-08T08:11:21.935Z,84.20
2017-09-08T08:13:49.416Z,83.70
2017-09-08T08:16:16.896Z,84.60
2017-09-08T08:18:44.404Z,84.00
2017-09-08T08:21:11.879Z,83.60
2017-09-08T08:23:39.391Z,84.40
2017-09-08T08:26:06.884Z,84.20
2017-09-08T08:28:34.389Z,84.20
2017-09-08T08:31:01.868Z,83.50
2017-09-08T08:33:29.367Z,83.70
2017-09-08T08:35:56.843Z,83.80
2017-09-08T08:38:24.344Z,82.40
2017-09-08T08:40:51.827Z,82.30
2017-09-08T08:43:19.333Z,82.10
2017-09-08T08:45:46.811Z,81.20
2017-09-08T08:48:14.303Z,80.50
2017-09-08T08:50:42.552Z,81.60
2017-09-08T08:53:10.820Z,80.10
2017-09-08T08:55:38.308Z,80.10
2017-09-08T08:58:05.832Z,81.60
2017-09-08T09:00:33.295Z,81.60
2017-09-08T09:03:00.816Z,82.00
2017-09-08T09:05:28.300Z,80.80
2017-09-08T09:07:55.824Z,81.10
2017-09-08T09:10:23.300Z,80.60
2017-09-08T09:12:50.780Z,80.90
2017-09-08T09:15:18.280Z,80.70
2017-09-08T09:17:45.751Z,81.00
2017-09-08T09:20:13.248Z,81.10
2017-09-08T09:22:40.723Z,81.80
2017-09-08T09:25:08.219Z,82.00
2017-09-08T09:27:35.699Z,82.30
2017-09-08T09:30:03.199Z,81.20
2017-09-08T09:32:30.675Z,81.60
2017-09-08T09:34:58.174Z,81.00
2017-09-08T09:37:25.652Z,80.90
2017-09-08T09:39:53.155Z,80.30
2017-09-08T09:42:20.636Z,80.60
2017-09-08T09:44:48.135Z,80.60
2017-09-08T09:47:15.616Z,80.80
2017-09-08T09:49:43.123Z,81.30
2017-09-08T09:52:10.605Z,82.10
2017-09-08T09:54:38.108Z,81.50
2017-09-08T09:57:05.592Z,82.20
2017-09-08T09:59:33.092Z,81.70
2017-09-08T10:02:00.563Z,82.30
2017-09-08T10:04:28.064Z,82.20
2017-09-08T10:06:56.306Z,81.50
2017-09-08T10:09:23.791Z,81.50
2017-09-08T10:11:51.296Z,81.80
2017-09-08T10:14:18.772Z,82.10
2017-09-08T10:16:46.267Z,82.10
2017-09-08T10:19:13.753Z,81.80
2017-09-08T10:21:41.256Z,82.30
2017-09-08T10:24:09.505Z,82.50
2017-09-08T10:26:37.775Z,83.70
2017-09-08T10:29:06.021Z,83.30
2017-09-08T10:31:33.519Z,83.10
2017-09-08T10:34:01.000Z,83.50
2017-09-08T10:36:28.503Z,83.60
2017-09-08T10:38:55.985Z,83.00
2017-09-08T10:41:23.490Z,83.30
2017-09-08T10:43:50.984Z,82.90
2017-09-08T10:46:19.252Z,83.80
2017-09-08T10:48:47.499Z,83.60
2017-09-08T10:51:14.996Z,83.60
2017-09-08T10:53:42.485Z,83.60
2017-09-08T10:56:09.980Z,83.50
2017-09-08T10:58:37.465Z,83.10
2017-09-08T11:01:05.732Z,84.30
2017-09-08T11:03:33.216Z,84.20
2017-09-08T11:06:00.756Z,83.90
2017-09-08T11:08:28.240Z,83.10
2017-09-08T11:10:55.723Z,83.00
2017-09-08T11:13:23.224Z,82.00
2017-09-08T11:15:50.708Z,81.70
2017-09-08T11:18:18.249Z,81.50
2017-09-08T11:20:45.710Z,81.70
2017-09-08T11:23:13.212Z,81.20
2017-09-08T11:25:40.696Z,81.40
2017-09-08T11:28:08.200Z,81.30
2017-09-08T11:30:36.448Z,81.00
2017-09-08T11:33:09.702Z,80.90
2017-09-08T11:35:42.880Z,81.70
2017-09-08T11:38:10.380Z,81.60
2017-09-08T11:40:37.858Z,81.30
2017-09-08T11:43:05.360Z,82.40
2017-09-08T11:45:32.849Z,81.00
2017-09-08T11:48:00.348Z,81.80
2017-09-08T11:50:27.835Z,80.70
2017-09-08T11:52:55.331Z,80.90
2017-09-08T11:55:22.811Z,79.80
2017-09-08T11:57:50.312Z,80.10
2017-09-08T12:00:17.800Z,79.50
2017-09-08T12:02:45.308Z,80.70
2017-09-08T12:05:12.794Z,80.70
2017-09-08T12:07:40.279Z,79.80
2017-09-08T12:10:07.779Z,80.00
2017-09-08T12:12:35.256Z,80.20
2017-09-08T12:15:02.759Z,80.70
2017-09-08T12:17:30.244Z,80.60
2017-09-08T12:19:58.511Z,80.90
2017-09-08T12:22:25.988Z,80.80
2017-09-08T12:24:53.487Z,81.30
2017-09-08T12:27:20.972Z,81.60
2017-09-08T12:29:48.472Z,81.80
2017-09-08T12:32:15.951Z,81.40
2017-09-08T12:34:43.460Z,81.30
2017-09-08T12:37:10.940Z,80.80
2017-09-08T12:39:38.444Z,80.50
2017-09-08T12:42:05.921Z,81.10
2017-09-08T12:44:33.424Z,81.10
2017-09-08T12:47:00.912Z,81.30
2017-09-08T12:49:28.414Z,80.80
2017-09-08T12:51:55.892Z,80.60
2017-09-08T12:54:23.401Z,80.70
2017-09-08T12:56:50.880Z,80.20
2017-09-08T12:59:18.390Z,80.80
2017-09-08T13:01:46.640Z,81.50
2017-09-08T13:04:14.120Z,81.00
2017-09-08T13:06:41.620Z,81.50
2017-09-08T13:09:09.113Z,81.40
2017-09-08T13:11:36.611Z,81.70
2017-09-08T13:14:04.088Z,81.30
2017-09-08T13:16:31.597Z,81.80
2017-09-08T13:18:59.093Z,81.90
2017-09-08T13:21:26.596Z,81.90
2017-09-08T13:23:54.840Z,81.70
2017-09-08T13:26:22.349Z,81.60
2017-09-08T13:28:49.832Z,82.00
2017-09-08T13:31:17.333Z,82.20
2017-09-08T13:33:44.817Z,82.30
2017-09-08T13:36:12.327Z,82.10
2017-09-08T13:38:39.808Z,82.40
2017-09-08T13:41:08.075Z,81.80
2017-09-08T13:43:36.316Z,81.90
2017-09-08T13:46:03.818Z,81.90
2017-09-08T13:48:31.306Z,81.90
2017-09-08T13:50:58.805Z,81.70
2017-09-08T13:53:26.287Z,81.60
2017-09-08T13:55:53.789Z,81.60
2017-09-08T13:58:21.278Z,80.90
2017-09-08T14:00:48.779Z,81.10
2017-09-08T14:03:16.261Z,80.80
2017-09-08T14:05:43.740Z,79.60
2017-09-08T14:08:11.236Z,79.70
2017-09-08T14:10:38.721Z,79.60
2017-09-08T14:13:06.220Z,79.80
2017-09-08T14:15:33.702Z,79.10
2017-09-08T14:18:01.215Z,78.90
2017-09-08T14:20:28.705Z,78.50
2017-09-08T14:22:56.208Z,78.20
2017-09-08T14:25:23.697Z,78.30
2017-09-08T14:27:51.196Z,78.20
2017-09-08T14:30:18.676Z,77.80
2017-09-08T14:32:46.172Z,78.30
2017-09-08T14:35:13.656Z,77.80
2017-09-08T14:37:41.156Z,78.30
2017-09-08T14:40:08.640Z,78.60
2017-09-08T14:42:36.137Z,78.20
2017-09-08T14:45:04.387Z,78.40
2017-09-08T14:47:31.893Z,78.30
2017-09-08T14:49:59.388Z,78.20
2017-09-08T14:52:26.905Z,78.40
2017-09-08T14:54:54.385Z,78.00
2017-09-08T14:57:21.877Z,77.50
2017-09-08T14:59:49.379Z,78.50
2017-09-08T15:02:16.861Z,78.60
2017-09-08T15:04:45.199Z,77.60
2017-09-08T15:07:12.709Z,77.30
2017-09-08T15:09:40.207Z,77.40
2017-09-08T15:12:07.692Z,77.40
2017-09-08T15:14:35.196Z,77.10
2017-09-08T15:17:02.693Z,77.50
2017-09-08T15:19:30.388Z,77.20
2017-09-08T15:21:57.869Z,76.90
2017-09-08T15:24:25.364Z,77.30
2017-09-08T15:26:52.849Z,77.30
2017-09-08T15:29:20.343Z,77.60
2017-09-08T15:31:50.276Z,76.80
2017-09-08T15:34:17.781Z,76.80
2017-09-08T15:36:46.031Z,77.00
2017-09-08T15:39:13.535Z,77.40
2017-09-08T15:41:41.016Z,77.30
2017-09-08T15:44:08.516Z,77.20
2017-09-08T15:46:36.000Z,77.30
2017-09-08T15:49:03.562Z,77.60
2017-09-08T15:51:31.047Z,77.80
2017-09-08T15:53:58.533Z,77.80
2017-09-08T15:56:26.032Z,78.30
2017-09-08T15:58:53.527Z,78.40
2017-09-08T16:01:21.020Z,77.40
2017-09-08T16:03:48.499Z,77.40
2017-09-08T16:06:16.015Z,77.30
2017-09-08T16:08:43.496Z,77.40
2017-09-08T16:11:10.987Z,77.00
2017-09-08T16:13:38.472Z,77.60
2017-09-08T16:16:05.972Z,77.20
2017-09-08T16:18:33.460Z,77.30
2017-09-08T16:21:00.964Z,77.50
2017-09-08T16:23:28.444Z,77.80
2017-09-08T16:25:55.943Z,77.60
2017-09-08T16:28:23.423Z,77.90
2017-09-08T16:30:50.919Z,77.80
2017-09-08T16:33:18.396Z,78.00
2017-09-08T16:35:46.668Z,78.40
2017-09-08T16:38:14.152Z,78.70
2017-09-08T16:40:41.656Z,78.40
2017-09-08T16:43:09.143Z,78.50
2017-09-08T16:59:10.344Z,78.00
2017-09-08T17:01:38.609Z,78.20
2017-09-08T17:04:06.085Z,78.10
2017-09-08T17:06:34.345Z,77.50
2017-09-08T17:09:01.832Z,77.40
2017-09-08T17:11:29.345Z,77.30
2017-09-08T17:13:56.820Z,77.60
2017-09-08T17:16:25.068Z,76.90
2017-09-08T17:18:52.567Z,76.80
2017-09-08T17:21:20.147Z,77.00
2017-09-08T17:23:48.043Z,76.60
2017-09-08T17:26:15.548Z,76.80
2017-09-08T17:28:46.580Z,77.60
2017-09-08T17:31:14.832Z,78.40
2017-09-08T17:33:42.327Z,78.40
2017-09-08T17:36:09.815Z,78.00
2017-09-08T17:38:37.316Z,78.20
2017-09-08T17:41:04.791Z,78.40
2017-09-08T17:43:32.288Z,78.40
2017-09-08T17:45:59.765Z,78.60
2017-09-08T17:48:27.259Z,79.20
2017-09-08T17:50:54.735Z,78.70
2017-09-08T17:53:22.331Z,79.40
2017-09-08T17:55:53.832Z,80.30
2017-09-08T17:58:21.332Z,82.20
2017-09-08T18:00:48.808Z,83.90
2017-09-08T18:03:16.312Z,84.70
2017-09-08T18:05:43.808Z,86.30
2017-09-08T18:08:11.325Z,86.10
2017-09-08T18:10:38.804Z,87.10
2017-09-08T18:13:06.288Z,87.30
2017-09-08T18:15:33.791Z,87.80
2017-09-08T18:18:01.279Z,88.60
2017-09-08T18:20:28.776Z,88.40
2017-09-08T18:22:56.259Z,88.40
2017-09-08T18:25:23.760Z,87.80
2017-09-08T18:27:51.239Z,88.10
2017-09-08T18:30:18.740Z,88.60
2017-09-08T18:32:46.221Z,88.30
2017-09-08T18:35:13.730Z,88.60
2017-09-08T18:37:41.211Z,88.50
2017-09-08T18:40:08.777Z,88.10
2017-09-08T18:42:36.261Z,87.70
2017-09-08T18:45:03.760Z,87.90
2017-09-08T18:47:32.013Z,87.00
2017-09-08T18:49:59.520Z,86.90
2017-09-08T18:52:27.765Z,85.60
2017-09-08T18:54:55.271Z,85.50
2017-09-08T18:57:22.755Z,85.40
2017-09-08T18:59:51.024Z,85.70
2017-09-08T19:02:19.288Z,84.80
2017-09-08T19:04:47.571Z,85.20
2017-09-08T19:07:15.052Z,85.10
2017-09-08T19:09:42.540Z,85.30
2017-09-08T19:12:10.045Z,84.50
2017-09-08T19:14:37.529Z,84.60
2017-09-08T19:17:05.036Z,84.40
2017-09-08T19:19:32.516Z,83.90
2017-09-08T19:22:00.025Z,83.80
2017-09-08T19:24:27.508Z,83.30
2017-09-08T19:26:55.043Z,83.20
2017-09-08T19:29:23.268Z,82.50
2017-09-08T19:31:50.771Z,82.40
2017-09-08T19:34:18.259Z,82.40
2017-09-08T19:36:45.763Z,82.40
2017-09-08T19:39:13.272Z,82.50
2017-09-08T19:41:40.776Z,82.50
2017-09-08T19:44:08.267Z,82.30
2017-09-08T19:46:35.772Z,82.50
2017-09-08T19:49:04.020Z,81.90
2017-09-08T19:51:31.520Z,81.90
2017-09-08T19:53:58.996Z,81.90
2017-09-08T19:56:26.499Z,81.80
2017-09-08T19:58:54.756Z,81.70
2017-09-08T20:01:23.045Z,82.80
2017-09-08T20:03:50.533Z,82.00
2017-09-08T20:06:18.024Z,81.60
2017-09-08T20:08:45.531Z,81.40
2017-09-08T20:11:13.016Z,81.80
2017-09-08T20:13:40.525Z,81.80
2017-09-08T20:16:08.029Z,81.60
2017-09-08T20:18:35.531Z,81.50
2017-09-08T20:21:03.008Z,81.70
2017-09-08T20:23:30.517Z,81.50
2017-09-08T20:25:58.002Z,81.70
2017-09-08T20:28:25.504Z,81.40
2017-09-08T20:30:52.984Z,81.40
2017-09-08T20:33:20.496Z,81.40
2017-09-08T20:35:47.984Z,81.20
2017-09-08T20:38:16.269Z,81.40
2017-09-08T20:40:43.759Z,81.40
2017-09-08T20:43:11.264Z,81.30
2017-09-08T20:45:38.747Z,81.30
2017-09-08T20:48:06.247Z,81.00
2017-09-08T20:50:33.732Z,80.90
2017-09-08T20:53:01.231Z,80.90
2017-09-08T20:55:28.719Z,80.90
2017-09-08T20:57:56.219Z,80.60
2017-09-08T21:00:23.705Z,80.90
2017-09-08T21:02:51.193Z,81.10
2017-09-08T21:05:18.696Z,81.10
2017-09-08T21:07:46.178Z,80.70
2017-09-08T21:10:13.672Z,80.90
2017-09-08T21:12:41.140Z,80.80
2017-09-08T21:15:09.396Z,80.70
2017-09-08T21:17:37.643Z,80.70
2017-09-08T21:20:05.920Z,81.40
2017-09-08T21:22:33.403Z,80.70
2017-09-08T21:25:00.896Z,80.50
2017-09-08T21:27:30.356Z,80.60
2017-09-08T21:29:57.848Z,80.50
2017-09-08T21:32:25.324Z,80.80
2017-09-08T21:34:52.820Z,80.60
2017-09-08T21:37:21.064Z,80.50
2017-09-08T21:39:48.564Z,80.50
2017-09-08T21:42:16.039Z,80.90
2017-09-08T21:44:43.536Z,80.50
2017-09-08T21:47:11.011Z,80.60
2017-09-08T21:49:38.511Z,80.50
2017-09-08T21:52:05.991Z,80.60
2017-09-08T21:54:33.488Z,80.60
2017-09-08T21:57:00.964Z,80.20
2017-09-08T21:59:28.485Z,80.80
2017-09-08T22:01:55.980Z,80.60
2017-09-08T22:04:23.469Z,80.70
2017-09-08T22:06:50.969Z,81.20
2017-09-08T22:09:18.455Z,80.80
2017-09-08T22:11:45.972Z,80.90
2017-09-08T22:14:13.457Z,80.80
2017-09-08T22:16:40.955Z,80.80
2017-09-08T22:19:09.207Z,81.00
2017-09-08T22:21:36.700Z,80.60
2017-09-08T22:24:04.244Z,81.00
2017-09-08T22:26:31.737Z,80.90
2017-09-08T22:28:59.985Z,80.90
2017-09-08T22:31:27.492Z,80.90
2017-09-08T22:33:54.972Z,80.90
2017-09-08T22:36:22.464Z,80.50
2017-09-08T22:38:49.940Z,80.80
2017-09-08T22:41:17.459Z,81.00
2017-09-08T22:43:44.935Z,81.00
2017-09-08T22:46:12.436Z,81.00
2017-09-08T22:48:39.920Z,81.00
2017-09-08T22:51:07.429Z,81.80
2017-09-08T22:53:34.917Z,81.20
2017-09-08T22:56:02.425Z,81.20
2017-09-08T22:58:29.917Z,81.20
2017-09-08T23:00:57.406Z,81.20
2017-09-08T23:03:24.915Z,81.20
2017-09-08T23:05:52.405Z,81.00
2017-09-08T23:08:20.174Z,81.30
2017-09-08T23:10:47.684Z,81.30
2017-09-08T23:13:15.200Z,81.00
2017-09-08T23:15:42.682Z,81.00
2017-09-08T23:18:10.189Z,81.20
2017-09-08T23:20:37.676Z,81.10
2017-09-08T23:23:05.181Z,81.10
2017-09-08T23:25:33.433Z,81.20
2017-09-08T23:28:00.938Z,81.10
2017-09-08T23:30:29.187Z,81.20
2017-09-08T23:32:56.692Z,81.20
2017-09-08T23:35:24.178Z,81.40
2017-09-08T23:37:51.680Z,81.30
2017-09-08T23:40:19.161Z,81.20
2017-09-08T23:42:46.666Z,81.10
2017-09-08T23:45:14.152Z,81.20
2017-09-08T23:47:41.649Z,81.20
2017-09-08T23:50:09.130Z,81.40
2017-09-08T23:52:36.640Z,81.40
2017-09-08T23:55:04.129Z,81.30
2017-09-08T23:57:32.385Z,81.40
